TimeIST,TemperatureF,Dew PointF,Humidity,Sea Level PressureIn,VisibilityMPH,Wind Direction,Wind SpeedMPH,Gust SpeedMPH,PrecipitationIn,Events,Conditions,WindDirDegrees,DateUTC
12:00 AM,78.8,71.6,78,29.77,2.2,Calm,Calm,-,N/A,,Haze,0,2013-08-28 18:30:00
1:00 AM,78.8,71.6,78,29.77,2.2,Calm,Calm,-,N/A,,Haze,0,2013-08-28 19:30:00
2:00 AM,78.8,71.6,78,29.74,2.2,Calm,Calm,-,N/A,,Haze,0,2013-08-28 20:30:00
3:00 AM,77.0,71.6,83,29.74,2.2,Variable,1.2,-,N/A,,Haze,0,2013-08-28 21:30:00
4:00 AM,77.0,69.8,78,29.71,2.2,NW,4.6,-,N/A,,Haze,310,2013-08-28 22:30:00
5:00 AM,77.0,69.8,78,29.71,2.2,WNW,4.6,-,N/A,,Haze,300,2013-08-28 23:30:00
5:30 AM,76,71,78,29.66,2,WNW,4.6,,,,Haze,290,2013-08-29 00:00:00
5:30 AM,75.2,69.8,83,29.74,2.2,WNW,4.6,-,N/A,,Haze,300,2013-08-29 00:00:00
6:00 AM,75.2,71.6,89,29.74,2.2,WNW,4.6,-,N/A,,Haze,300,2013-08-29 00:30:00
7:00 AM,77.0,71.6,83,29.77,2.2,WNW,4.6,-,N/A,,Scattered Clouds,300,2013-08-29 01:30:00
8:00 AM,78.8,71.6,78,29.80,2.2,NW,4.6,-,N/A,,Scattered Clouds,310,2013-08-29 02:30:00
9:00 AM,82.4,73.4,74,29.80,2.5,WNW,6.9,-,N/A,,Haze,300,2013-08-29 03:30:00
10:00 AM,84.2,73.4,70,29.80,2.5,WNW,10.4,-,N/A,,Haze,300,2013-08-29 04:30:00
11:00 AM,86.0,73.4,66,29.80,2.5,Variable,8.1,-,N/A,,Haze,0,2013-08-29 05:30:00
11:30 AM,88,74,55,29.70,2,WNW,5.8,,,,Haze,290,2013-08-29 06:00:00
1:00 PM,89.6,73.4,59,29.77,3.1,Variable,5.8,-,N/A,,Haze,0,2013-08-29 07:30:00
2:00 PM,89.6,73.4,59,29.74,3.1,Variable,4.6,-,N/A,,Haze,0,2013-08-29 08:30:00
2:30 PM,91,74,49,29.65,2,WNW,4.6,,,,Haze,290,2013-08-29 09:00:00
3:00 PM,91.4,73.4,55,29.74,3.1,Variable,4.6,-,N/A,,Haze,0,2013-08-29 09:30:00
4:00 PM,89.6,73.4,59,29.71,3.1,West,10.4,-,N/A,,Haze,260,2013-08-29 10:30:00
5:30 PM,92,75,49,29.62,2,West,9.2,,,,Haze,270,2013-08-29 12:00:00
6:00 PM,89.6,71.6,55,29.71,3.1,West,9.2,-,N/A,,Haze,260,2013-08-29 12:30:00
7:00 PM,86.0,73.4,66,29.71,2.5,West,4.6,-,N/A,,Haze,270,2013-08-29 13:30:00
8:00 PM,84.2,73.4,70,29.74,2.5,Calm,Calm,-,N/A,,Haze,0,2013-08-29 14:30:00
8:30 PM,84.2,73.4,70,29.74,2.5,Variable,2.3,-,N/A,,Haze,0,2013-08-29 15:00:00
9:00 PM,84.2,73.4,70,29.77,2.5,WNW,6.9,-,N/A,,Haze,290,2013-08-29 15:30:00
10:00 PM,84.2,71.6,66,29.77,2.5,WNW,10.4,-,N/A,,Haze,290,2013-08-29 16:30:00
11:00 PM,82.4,71.6,70,29.77,2.5,WNW,8.1,-,N/A,,Haze,290,2013-08-29 17:30:00